createdAt,value
2018-02-14T00:01:59.675Z,5.68
2018-02-14T00:04:27.758Z,5.65
2018-02-14T00:06:55.957Z,6.43
2018-02-14T00:09:24.163Z,4.85
2018-02-14T00:11:52.337Z,4.47
2018-02-14T00:14:20.537Z,4.93
2018-02-14T00:16:48.737Z,6.62
2018-02-14T00:19:17.123Z,6.30
2018-02-14T00:21:45.437Z,5.72
2018-02-14T00:24:13.734Z,6.12
2018-02-14T00:26:42.016Z,6.28
2018-02-14T00:29:10.136Z,5.65
2018-02-14T00:31:38.529Z,4.80
2018-02-14T00:34:07.523Z,4.32
2018-02-14T00:36:35.717Z,5.32
2018-02-14T00:39:03.931Z,5.50
2018-02-14T00:41:32.102Z,5.90
2018-02-14T00:44:00.197Z,5.32
2018-02-14T00:46:28.399Z,4.82
2018-02-14T00:48:56.497Z,5.10
2018-02-14T00:51:24.681Z,5.45
2018-02-14T00:53:52.884Z,5.45
2018-02-14T00:56:21.060Z,5.40
2018-02-14T00:58:49.166Z,5.60
2018-02-14T01:01:17.456Z,4.30
2018-02-14T01:03:45.644Z,5.65
2018-02-14T01:06:13.956Z,4.85
2018-02-14T01:08:42.378Z,6.75
2018-02-14T01:11:10.662Z,5.00
2018-02-14T01:13:38.841Z,4.85
2018-02-14T01:16:07.136Z,5.18
2018-02-14T01:18:35.341Z,4.55
2018-02-14T01:21:03.516Z,4.35
2018-02-14T01:23:31.556Z,4.85
2018-02-14T01:25:59.697Z,5.40
2018-02-14T01:28:27.915Z,4.60
2018-02-14T01:30:56.438Z,5.07
2018-02-14T01:33:24.796Z,3.85
2018-02-14T01:35:52.978Z,5.00
2018-02-14T01:38:21.495Z,4.62
2018-02-14T01:40:49.697Z,5.00
2018-02-14T01:43:18.434Z,4.80
2018-02-14T01:45:47.398Z,5.03
2018-02-14T01:48:15.958Z,4.20
2018-02-14T01:50:44.865Z,4.40
2018-02-14T01:53:13.922Z,5.80
2018-02-14T01:55:42.782Z,4.53
2018-02-14T01:58:11.566Z,5.60
2018-02-14T02:00:40.149Z,4.37
2018-02-14T02:03:09.819Z,3.97
2018-02-14T02:05:38.800Z,4.82
2018-02-14T02:08:07.696Z,4.15
2018-02-14T02:10:36.439Z,4.82
2018-02-14T02:13:05.219Z,4.93
2018-02-14T02:15:33.619Z,3.83
2018-02-14T02:18:02.685Z,4.55
2018-02-14T02:20:31.435Z,4.37
2018-02-14T02:23:00.059Z,4.10
2018-02-14T02:25:30.200Z,4.62
2018-02-14T02:27:58.678Z,3.85
2018-02-14T02:30:27.045Z,3.85
2018-02-14T02:32:56.296Z,4.72
2018-02-14T02:35:24.914Z,4.82
2018-02-14T02:37:53.797Z,3.53
2018-02-14T02:40:22.846Z,4.18
2018-02-14T02:42:51.522Z,4.12
2018-02-14T02:45:20.040Z,4.22
2018-02-14T02:47:49.714Z,4.95
2018-02-14T02:50:19.080Z,4.20
2018-02-14T02:52:47.488Z,3.65
2018-02-14T02:55:16.383Z,4.03
2018-02-14T02:57:44.895Z,3.83
2018-02-14T03:00:13.503Z,3.90
2018-02-14T03:02:41.785Z,3.90
2018-02-14T03:05:09.879Z,3.58
2018-02-14T03:07:38.096Z,3.58
2018-02-14T03:10:06.282Z,3.55
2018-02-14T03:12:34.480Z,3.42
2018-02-14T03:15:02.598Z,3.80
2018-02-14T03:17:30.760Z,3.17
2018-02-14T03:19:59.160Z,4.05
2018-02-14T03:22:28.339Z,3.62
2018-02-14T03:24:56.339Z,4.62
2018-02-14T03:27:24.558Z,3.85
2018-02-14T03:29:52.642Z,3.58
2018-02-14T03:32:21.078Z,4.30
2018-02-14T03:34:49.348Z,3.42
2018-02-14T03:37:17.634Z,3.33
2018-02-14T03:39:45.833Z,3.85
2018-02-14T03:42:14.098Z,3.72
2018-02-14T03:44:42.419Z,3.90
2018-02-14T03:47:11.745Z,3.78
2018-02-14T03:49:39.898Z,3.05
2018-02-14T03:52:08.243Z,3.67
2018-02-14T03:54:36.823Z,4.50
2018-02-14T03:57:04.995Z,3.70
2018-02-14T03:59:33.363Z,4.55
2018-02-14T04:02:01.760Z,3.50
2018-02-14T04:04:29.941Z,3.10
2018-02-14T04:06:58.018Z,3.50
2018-02-14T04:09:26.420Z,3.90
2018-02-14T04:11:54.798Z,3.45
2018-02-14T04:14:23.303Z,3.72
2018-02-14T04:16:51.535Z,3.10
2018-02-14T04:19:19.859Z,3.60
2018-02-14T04:21:48.420Z,4.37
2018-02-14T04:24:16.715Z,3.33
2018-02-14T04:26:45.314Z,4.70
2018-02-14T04:29:14.125Z,3.78
2018-02-14T04:31:42.884Z,4.68
2018-02-14T04:34:11.318Z,4.43
2018-02-14T04:36:39.567Z,4.65
2018-02-14T04:39:08.144Z,3.92
2018-02-14T04:41:36.424Z,3.85
2018-02-14T04:44:04.800Z,5.43
2018-02-14T04:46:32.960Z,5.12
2018-02-14T04:49:01.522Z,4.53
2018-02-14T04:51:29.658Z,4.43
2018-02-14T04:53:57.994Z,6.82
2018-02-14T04:56:26.200Z,5.62
2018-02-14T04:58:54.515Z,4.37
2018-02-14T05:01:22.894Z,4.10
2018-02-14T05:03:51.204Z,3.03
2018-02-14T05:06:19.378Z,3.50
2018-02-14T05:08:47.585Z,3.97
2018-02-14T05:11:15.717Z,3.10
2018-02-14T05:13:44.060Z,3.62
2018-02-14T05:16:12.358Z,2.70
2018-02-14T05:18:40.561Z,3.40
2018-02-14T05:21:08.638Z,2.00
2018-02-14T05:23:37.840Z,5.45
2018-02-14T05:26:06.003Z,3.83
2018-02-14T05:28:34.297Z,3.25
2018-02-14T05:31:02.568Z,4.05
2018-02-14T05:33:30.619Z,3.17
2018-02-14T05:35:58.834Z,3.60
2018-02-14T05:38:27.054Z,3.22
2018-02-14T05:40:55.579Z,3.55
2018-02-14T05:43:23.835Z,5.57
2018-02-14T05:45:52.139Z,4.05
2018-02-14T05:48:20.259Z,3.15
2018-02-14T05:50:48.427Z,3.50
2018-02-14T05:53:16.624Z,2.78
2018-02-14T05:55:44.737Z,4.50
2018-02-14T05:58:12.999Z,4.80
2018-02-14T06:00:41.114Z,3.87
2018-02-14T06:03:09.194Z,4.85
2018-02-14T06:05:37.378Z,10.13
2018-02-14T06:08:05.482Z,4.80
2018-02-14T06:10:33.670Z,3.50
2018-02-14T06:13:01.752Z,4.80
2018-02-14T06:15:29.867Z,5.05
2018-02-14T06:17:57.935Z,14.07
2018-02-14T06:20:27.057Z,15.15
2018-02-14T06:22:55.200Z,7.35
2018-02-14T06:25:23.492Z,6.75
2018-02-14T06:27:51.839Z,4.35
2018-02-14T06:30:20.241Z,4.55
2018-02-14T06:32:48.617Z,5.75
2018-02-14T06:35:17.247Z,5.93
2018-02-14T06:37:45.339Z,5.80
2018-02-14T06:40:13.490Z,6.87
2018-02-14T06:42:41.838Z,7.00
2018-02-14T06:45:10.019Z,6.40
2018-02-14T06:47:38.115Z,7.53
2018-02-14T06:50:06.275Z,6.68
2018-02-14T06:52:34.601Z,6.47
2018-02-14T06:55:02.920Z,5.60
2018-02-14T06:57:31.117Z,6.37
2018-02-14T06:59:59.557Z,6.95
2018-02-14T07:02:28.348Z,6.10
2018-02-14T07:04:57.604Z,6.37
2018-02-14T07:07:26.315Z,6.55
2018-02-14T07:09:54.715Z,6.20
2018-02-14T07:12:23.224Z,7.45
2018-02-14T07:14:51.528Z,8.77
2018-02-14T07:17:19.821Z,7.25
2018-02-14T07:19:48.022Z,10.25
2018-02-14T07:22:16.219Z,10.32
2018-02-14T07:24:44.404Z,10.27
2018-02-14T07:27:12.601Z,7.78
2018-02-14T07:29:40.801Z,7.80
2018-02-14T07:32:08.884Z,9.32
2018-02-14T07:34:37.084Z,8.88
2018-02-14T07:37:05.178Z,8.73
2018-02-14T07:39:33.365Z,8.00
2018-02-14T07:42:01.468Z,8.80
2018-02-14T07:44:29.756Z,7.85
2018-02-14T07:46:58.060Z,7.18
2018-02-14T07:49:26.459Z,7.43
2018-02-14T07:51:54.650Z,7.90
2018-02-14T07:54:22.943Z,6.68
2018-02-14T07:56:51.338Z,7.80
2018-02-14T07:59:19.536Z,8.15
2018-02-14T08:01:47.736Z,7.87
2018-02-14T08:04:15.928Z,7.78
2018-02-14T08:06:44.223Z,7.75
2018-02-14T08:09:12.451Z,8.98
2018-02-14T08:11:40.607Z,9.10
2018-02-14T08:14:08.808Z,10.02
2018-02-14T08:16:36.887Z,9.95
2018-02-14T08:19:05.021Z,9.70
2018-02-14T08:21:33.203Z,10.18
2018-02-14T08:24:01.489Z,7.03
2018-02-14T08:26:29.728Z,6.97
2018-02-14T08:28:58.067Z,7.00
2018-02-14T08:31:26.367Z,6.50
2018-02-14T08:33:54.583Z,5.97
2018-02-14T08:36:22.726Z,6.45
2018-02-14T08:38:51.054Z,7.62
2018-02-14T08:41:19.256Z,6.93
2018-02-14T08:43:47.435Z,7.60
2018-02-14T08:46:15.644Z,7.70
2018-02-14T08:48:43.737Z,9.80
2018-02-14T08:51:11.923Z,10.07
2018-02-14T08:53:40.121Z,11.55
2018-02-14T08:56:08.320Z,11.10
2018-02-14T08:58:36.405Z,11.23
2018-02-14T09:01:04.602Z,11.07
2018-02-14T09:03:32.900Z,9.57
2018-02-14T09:06:01.184Z,11.07
2018-02-14T09:08:29.503Z,10.75
2018-02-14T09:10:58.002Z,9.32
2018-02-14T09:13:26.395Z,9.80
2018-02-14T09:15:54.604Z,9.20
2018-02-14T09:18:22.775Z,8.68
2018-02-14T09:20:51.024Z,8.20
2018-02-14T09:23:19.064Z,9.10
2018-02-14T09:25:47.244Z,7.35
2018-02-14T09:28:15.367Z,7.65
2018-02-14T09:30:43.483Z,6.37
2018-02-14T09:33:11.545Z,6.57
2018-02-14T09:35:39.824Z,7.62
2018-02-14T09:38:08.024Z,6.85
2018-02-14T09:40:36.225Z,6.50
2018-02-14T09:43:04.324Z,6.72
2018-02-14T09:45:32.508Z,6.47
2018-02-14T09:48:00.608Z,6.30
2018-02-14T09:50:28.802Z,6.62
2018-02-14T09:52:56.883Z,6.55
2018-02-14T09:55:25.183Z,6.45
2018-02-14T09:57:53.277Z,6.62
2018-02-14T10:00:21.420Z,5.43
2018-02-14T10:02:49.436Z,5.40
2018-02-14T10:05:17.660Z,5.68
2018-02-14T10:07:45.834Z,4.82
2018-02-14T10:10:14.548Z,5.10
2018-02-14T10:12:42.752Z,5.07
2018-02-14T10:15:10.939Z,5.60
2018-02-14T10:17:38.980Z,5.95
2018-02-14T10:20:07.140Z,5.47
2018-02-14T10:22:35.354Z,4.75
2018-02-14T10:25:03.517Z,4.93
2018-02-14T10:27:31.617Z,4.55
2018-02-14T10:30:00.718Z,4.30
2018-02-14T10:32:28.928Z,4.25
2018-02-14T10:34:57.110Z,4.97
2018-02-14T10:37:25.309Z,4.68
2018-02-14T10:39:53.494Z,4.07
2018-02-14T10:42:21.547Z,5.47
2018-02-14T10:44:49.636Z,4.50
2018-02-14T10:47:17.881Z,5.12
2018-02-14T10:49:46.063Z,4.30
2018-02-14T10:52:14.262Z,4.37
2018-02-14T10:54:42.365Z,4.10
2018-02-14T10:57:10.461Z,4.47
2018-02-14T10:59:38.867Z,4.53
2018-02-14T11:02:07.354Z,4.05
2018-02-14T11:04:35.408Z,3.87
2018-02-14T11:07:03.557Z,3.45
2018-02-14T11:09:31.737Z,3.50
2018-02-14T11:11:59.948Z,3.70
2018-02-14T11:14:28.215Z,3.72
2018-02-14T11:16:57.245Z,3.85
2018-02-14T11:19:25.443Z,3.00
2018-02-14T11:21:53.754Z,3.12
2018-02-14T11:24:21.851Z,4.87
2018-02-14T11:26:49.920Z,11.07
2018-02-14T11:29:18.206Z,4.35
2018-02-14T11:31:46.406Z,8.13
2018-02-14T11:34:14.497Z,9.80
2018-02-14T11:36:42.679Z,9.07
2018-02-14T11:39:10.784Z,9.18
2018-02-14T11:41:39.182Z,8.80
2018-02-14T11:44:07.480Z,7.97
2018-02-14T11:46:35.767Z,8.15
2018-02-14T11:49:03.959Z,6.30
2018-02-14T11:51:32.156Z,6.50
2018-02-14T11:54:00.352Z,6.50
2018-02-14T11:56:28.554Z,6.10
2018-02-14T11:58:56.544Z,5.20
2018-02-14T12:01:24.741Z,5.73
2018-02-14T12:03:52.828Z,4.50
2018-02-14T12:06:21.121Z,5.10
2018-02-14T12:08:49.141Z,4.27
2018-02-14T12:11:17.308Z,3.20
2018-02-14T12:13:45.402Z,3.55
2018-02-14T12:16:13.593Z,4.30
2018-02-14T12:18:41.794Z,3.87
2018-02-14T12:21:09.884Z,3.50
2018-02-14T12:23:38.186Z,3.15
2018-02-14T12:26:06.480Z,3.50
2018-02-14T12:28:34.554Z,3.08
2018-02-14T12:31:02.772Z,3.42
2018-02-14T12:33:30.857Z,3.25
2018-02-14T12:35:59.039Z,2.72
2018-02-14T12:38:27.239Z,2.87
2018-02-14T12:40:55.435Z,3.10
2018-02-14T12:43:23.822Z,2.58
2018-02-14T12:45:51.920Z,2.30
2018-02-14T12:48:20.122Z,3.08
2018-02-14T12:50:48.218Z,2.53
2018-02-14T12:53:16.162Z,3.10
2018-02-14T12:55:44.299Z,2.60
2018-02-14T12:58:12.418Z,2.10
2018-02-14T13:00:40.684Z,2.30
2018-02-14T13:03:08.916Z,2.58
2018-02-14T13:05:36.873Z,2.58
2018-02-14T13:08:05.054Z,2.50
2018-02-14T13:10:33.254Z,2.83
2018-02-14T13:13:01.438Z,2.12
2018-02-14T13:15:29.639Z,2.33
2018-02-14T13:17:57.838Z,2.45
2018-02-14T13:20:25.937Z,2.33
2018-02-14T13:22:54.098Z,2.75
2018-02-14T13:25:22.219Z,2.50
2018-02-14T13:27:50.419Z,2.50
2018-02-14T13:30:18.499Z,2.55
2018-02-14T13:32:46.571Z,2.15
2018-02-14T13:35:14.638Z,2.20
2018-02-14T13:37:42.717Z,2.20
2018-02-14T13:40:10.763Z,2.62
2018-02-14T13:42:38.962Z,2.60
2018-02-14T13:45:07.057Z,2.62
2018-02-14T13:47:35.241Z,2.40
2018-02-14T13:50:03.381Z,3.42
2018-02-14T13:52:31.546Z,2.60
2018-02-14T13:54:59.639Z,2.55
2018-02-14T13:57:27.717Z,3.03
2018-02-14T13:59:55.735Z,2.80
2018-02-14T14:02:26.057Z,2.80
2018-02-14T14:04:54.137Z,3.05
2018-02-14T14:07:22.434Z,3.08
2018-02-14T14:09:50.535Z,3.28
2018-02-14T14:12:18.735Z,2.78
2018-02-14T14:14:46.815Z,3.05
2018-02-14T14:17:15.015Z,3.20
2018-02-14T14:19:43.118Z,3.10
2018-02-14T14:22:11.297Z,3.55
2018-02-14T14:24:39.439Z,2.95
2018-02-14T14:27:07.798Z,2.75
2018-02-14T14:29:35.979Z,2.72
2018-02-14T14:32:04.219Z,2.50
2018-02-14T14:34:32.376Z,3.50
2018-02-14T14:37:00.449Z,2.97
2018-02-14T14:39:28.771Z,2.72
2018-02-14T14:41:57.067Z,2.87
2018-02-14T14:44:26.198Z,4.37
2018-02-14T14:46:54.579Z,2.72
2018-02-14T14:49:22.543Z,2.83
2018-02-14T14:51:50.767Z,2.80
2018-02-14T14:54:18.919Z,3.45
2018-02-14T14:56:48.330Z,3.30
2018-02-14T14:59:16.418Z,4.00
2018-02-14T15:01:44.755Z,3.50
2018-02-14T15:04:12.965Z,3.35
2018-02-14T15:06:41.060Z,3.15
2018-02-14T15:09:09.336Z,4.18
2018-02-14T15:11:37.638Z,4.12
2018-02-14T15:14:05.838Z,4.53
2018-02-14T15:16:33.919Z,4.32
2018-02-14T15:19:02.123Z,5.03
2018-02-14T15:21:30.219Z,4.72
2018-02-14T15:23:58.418Z,3.70
2018-02-14T15:26:26.603Z,4.35
2018-02-14T15:28:54.795Z,4.68
2018-02-14T15:31:22.896Z,4.22
2018-02-14T15:33:51.080Z,4.65
2018-02-14T15:36:19.179Z,4.35
2018-02-14T15:38:47.279Z,5.28
2018-02-14T15:41:15.480Z,5.40
2018-02-14T15:43:43.758Z,5.93
2018-02-14T15:46:12.177Z,5.53
2018-02-14T15:48:40.565Z,6.45
2018-02-14T15:51:08.765Z,6.22
2018-02-14T15:53:36.892Z,5.40
2018-02-14T15:56:05.058Z,5.57
2018-02-14T15:58:33.947Z,5.12
2018-02-14T16:01:02.046Z,5.70
2018-02-14T16:03:30.245Z,5.85
2018-02-14T16:05:58.340Z,5.87
2018-02-14T16:08:26.521Z,7.05
2018-02-14T16:10:54.817Z,8.15
2018-02-14T16:13:22.986Z,6.43
2018-02-14T16:15:51.103Z,6.05
2018-02-14T16:18:19.123Z,5.45
2018-02-14T16:20:47.165Z,5.95
2018-02-14T16:23:15.499Z,5.93
2018-02-14T16:25:43.674Z,4.90
2018-02-14T16:28:12.074Z,5.20
2018-02-14T16:30:40.297Z,7.15
2018-02-14T16:33:08.670Z,8.25
2018-02-14T16:35:36.866Z,8.10
2018-02-14T16:38:05.084Z,8.20
2018-02-14T16:40:33.365Z,9.70
2018-02-14T16:43:01.554Z,10.10
2018-02-14T16:45:30.625Z,8.45
2018-02-14T16:47:58.768Z,8.63
2018-02-14T16:50:26.843Z,9.02
2018-02-14T16:52:55.046Z,7.72
2018-02-14T16:55:23.059Z,8.50
2018-02-14T16:57:51.248Z,8.25
2018-02-14T17:00:19.432Z,8.32
2018-02-14T17:02:47.699Z,7.05
2018-02-14T17:05:15.919Z,7.97
2018-02-14T17:07:44.323Z,6.40
2018-02-14T17:10:12.746Z,9.23
2018-02-14T17:12:42.239Z,7.80
2018-02-14T17:15:10.423Z,7.25
2018-02-14T17:17:38.638Z,7.80
2018-02-14T17:20:06.820Z,8.48
2018-02-14T17:22:34.945Z,7.97
2018-02-14T17:25:03.100Z,8.85
2018-02-14T17:27:31.202Z,7.40
2018-02-14T17:29:59.481Z,8.73
2018-02-14T17:32:27.697Z,8.40
2018-02-14T17:34:55.827Z,9.00
2018-02-14T17:37:23.877Z,8.10
2018-02-14T17:39:52.086Z,8.93
2018-02-14T17:42:20.375Z,9.32
2018-02-14T17:44:48.714Z,8.93
2018-02-14T17:47:17.254Z,8.93
2018-02-14T17:49:45.564Z,8.40
2018-02-14T17:52:13.649Z,7.12
2018-02-14T17:54:41.767Z,8.90
2018-02-14T17:57:10.145Z,9.63
2018-02-14T17:59:38.866Z,8.85
2018-02-14T18:02:07.054Z,8.77
2018-02-14T18:04:35.108Z,9.43
2018-02-14T18:07:03.327Z,8.93
2018-02-14T18:09:31.476Z,9.20
2018-02-14T18:11:59.581Z,7.65
2018-02-14T18:14:27.915Z,8.82
2018-02-14T18:16:56.263Z,9.00
2018-02-14T18:19:24.438Z,9.45
2018-02-14T18:21:52.611Z,9.10
2018-02-14T18:24:20.779Z,9.88
2018-02-14T18:26:48.890Z,10.10
2018-02-14T18:29:17.419Z,9.10
2018-02-14T18:31:45.579Z,10.02
2018-02-14T18:34:13.674Z,10.55
2018-02-14T18:36:41.676Z,11.05
2018-02-14T18:39:09.757Z,9.00
2018-02-14T18:41:37.866Z,11.00
2018-02-14T18:44:06.156Z,11.30
2018-02-14T18:46:34.277Z,11.52
2018-02-14T18:49:02.877Z,10.50
2018-02-14T18:51:31.346Z,9.02
2018-02-14T18:53:59.859Z,10.90
2018-02-14T18:56:28.652Z,14.05
2018-02-14T18:58:57.353Z,11.43
2018-02-14T19:01:25.863Z,11.23
2018-02-14T19:03:54.448Z,12.10
2018-02-14T19:06:23.467Z,9.10
2018-02-14T19:08:52.460Z,11.77
2018-02-14T19:11:21.320Z,12.32
2018-02-14T19:13:50.561Z,15.40
2018-02-14T19:16:22.999Z,13.50
2018-02-14T19:18:51.587Z,14.40
2018-02-14T19:21:19.947Z,11.60
2018-02-14T19:23:49.149Z,12.02
2018-02-14T19:26:17.347Z,13.25
2018-02-14T19:28:45.586Z,14.38
2018-02-14T19:31:13.729Z,12.23
2018-02-14T19:33:42.107Z,11.98
2018-02-14T19:36:10.468Z,12.85
2018-02-14T19:38:38.787Z,11.50
2018-02-14T19:41:06.868Z,11.32
2018-02-14T19:43:34.928Z,10.05
2018-02-14T19:46:03.169Z,12.13
2018-02-14T19:48:31.269Z,10.00
2018-02-14T19:50:59.350Z,10.63
2018-02-14T19:53:27.557Z,11.10
2018-02-14T19:55:55.648Z,10.80
2018-02-14T19:58:23.756Z,10.95
2018-02-14T20:00:52.144Z,11.77
2018-02-14T20:03:20.326Z,9.30
2018-02-14T20:05:48.523Z,9.95
2018-02-14T20:08:16.619Z,9.35
2018-02-14T20:10:44.823Z,11.30
2018-02-14T20:13:13.051Z,11.25
2018-02-14T20:15:41.207Z,9.40
2018-02-14T20:18:09.288Z,10.50
2018-02-14T20:20:37.488Z,11.12
2018-02-14T20:23:05.591Z,12.23
2018-02-14T20:25:33.773Z,11.90
2018-02-14T20:28:01.978Z,12.48
2018-02-14T20:30:30.062Z,10.65
2018-02-14T20:32:58.253Z,12.70
2018-02-14T20:35:26.461Z,10.45
2018-02-14T20:37:54.553Z,11.40
2018-02-14T20:40:22.727Z,11.70
2018-02-14T20:42:50.919Z,10.90
2018-02-14T20:45:19.125Z,9.00
2018-02-14T20:47:47.424Z,11.50
2018-02-14T20:50:15.512Z,10.70
2018-02-14T20:52:43.613Z,9.65
2018-02-14T20:55:11.793Z,9.65
2018-02-14T20:57:39.959Z,10.35
2018-02-14T21:00:08.092Z,9.40
2018-02-14T21:02:36.175Z,10.10
2018-02-14T21:05:04.375Z,9.57
2018-02-14T21:07:32.560Z,9.38
2018-02-14T21:10:00.659Z,8.38
2018-02-14T21:12:28.762Z,10.13
2018-02-14T21:14:56.947Z,8.52
2018-02-14T21:17:25.146Z,10.18
2018-02-14T21:19:53.323Z,9.60
2018-02-14T21:22:21.423Z,11.93
2018-02-14T21:24:49.622Z,10.18
2018-02-14T21:27:17.725Z,9.95
2018-02-14T21:29:46.615Z,10.35
2018-02-14T21:32:14.713Z,10.43
2018-02-14T21:34:42.913Z,9.73
2018-02-14T21:37:11.112Z,10.90
2018-02-14T21:39:39.206Z,10.23
2018-02-14T21:42:07.799Z,10.57
2018-02-14T21:44:35.902Z,9.57
2018-02-14T21:47:03.991Z,8.13
2018-02-14T21:49:33.106Z,8.35
2018-02-14T21:52:01.182Z,8.32
2018-02-14T21:54:29.285Z,7.97
2018-02-14T21:56:57.408Z,8.90
2018-02-14T21:59:25.668Z,8.67
2018-02-14T22:01:53.951Z,8.38
2018-02-14T22:04:22.164Z,9.48
2018-02-14T22:06:50.552Z,8.68
2018-02-14T22:09:20.343Z,10.65
2018-02-14T22:11:49.440Z,10.50
2018-02-14T22:14:18.398Z,11.75
2018-02-14T22:16:46.835Z,10.18
2018-02-14T22:19:15.842Z,9.85
2018-02-14T22:21:44.240Z,11.27
2018-02-14T22:24:12.476Z,8.98
2018-02-14T22:26:41.055Z,9.13
2018-02-14T22:29:10.041Z,8.35
2018-02-14T22:31:41.538Z,8.18
2018-02-14T22:34:09.898Z,6.57
2018-02-14T22:36:38.478Z,7.87
2018-02-14T22:39:07.009Z,7.10
2018-02-14T22:41:35.948Z,6.40
2018-02-14T22:44:04.529Z,7.37
2018-02-14T22:46:33.993Z,6.90
2018-02-14T22:49:02.344Z,8.15
2018-02-14T22:51:32.515Z,7.15
2018-02-14T22:54:01.195Z,6.85
2018-02-14T22:56:29.782Z,7.05
2018-02-14T22:58:58.180Z,6.95
2018-02-14T23:01:29.075Z,6.72
2018-02-14T23:03:57.995Z,6.82
2018-02-14T23:06:27.262Z,6.32
2018-02-14T23:08:55.557Z,5.72
2018-02-14T23:11:23.988Z,5.53
2018-02-14T23:13:52.370Z,5.47
2018-02-14T23:16:20.562Z,5.28
2018-02-14T23:18:48.782Z,5.85
2018-02-14T23:21:17.051Z,4.95
2018-02-14T23:23:45.322Z,5.18
2018-02-14T23:26:13.539Z,5.65
2018-02-14T23:28:41.840Z,5.53
2018-02-14T23:31:10.244Z,5.70
2018-02-14T23:33:38.411Z,7.05
2018-02-14T23:36:06.838Z,5.40
2018-02-14T23:38:35.022Z,5.62
2018-02-14T23:41:03.325Z,5.55
2018-02-14T23:43:31.621Z,5.37
2018-02-14T23:46:00.979Z,6.15
2018-02-14T23:48:29.231Z,5.68
2018-02-14T23:50:57.535Z,5.80
2018-02-14T23:53:25.936Z,5.20
2018-02-14T23:55:54.338Z,6.03
2018-02-14T23:58:22.637Z,5.35
